Maersk Dispatcher — XJAJ — position and weather

sailwx.info

Track history (hours):
 
Tides and Currents Weather Stations Pressure Air Temp Water Temp Dewpoint Dewpoint Depression Visibility Wind Speed Wind Dir Waves Ship Positions

Maersk Dispatcher

Last reported at 2016-May-22 04:27 UTC. Time now 2016-May-25 07:21 UTC.
Position N 47°28' W 052°05'.

Length 89 m; draft 6.8 m.

Type: Other ship. MMSI: 316013080.

Date/timePositionNaut miles runAvg speedWind from/ knotsBaromVisibWave heightAir tempDewpointWater temp
2016-May-22 04:27N 47°28' W 052°05'1414.6
2016-May-22 03:31N 47°32' W 052°24'1212.5
2016-May-22 02:33N 47°34' W 052°42'0 0.1
2016-May-22 01:30N 47°34' W 052°42'0 0.0
2016-May-22 00:27N 47°34' W 052°42'0 0.0
2016-May-21 23:30N 47°34' W 052°42'0 0.0
2016-May-21 22:03N 47°34' W 052°42'0 0.0
2016-May-21 21:30N 47°34' W 052°42'0 0.3
2016-May-21 20:30N 47°34' W 052°42'0 0.0
2016-May-21 19:27N 47°34' W 052°42'0 0.0
2016-May-21 18:33N 47°34' W 052°42'0 0.1
2016-May-21 17:33N 47°34' W 052°42'0 0.4
2016-May-21 16:31N 47°34' W 052°42'0 0.0
2016-May-21 15:31N 47°34' W 052°42'0 0.0
2016-May-21 14:31N 47°34' W 052°42'0 0.0
2016-May-21 13:25N 47°34' W 052°42'0 0.0
2016-May-21 12:31N 47°34' W 052°42'0 0.0
2016-May-21 11:29N 47°34' W 052°42'1 0.8
2016-May-21 10:30N 47°34' W 052°41'1312.8
2016-May-21 09:29N 47°30' W 052°23'  
2016-May-14 22:32N 47°32' W 052°10'1211.9
2016-May-14 21:31N 47°33' W 052°27'10 9.8
2016-May-14 20:30N 47°34' W 052°42'0 0.0
2016-May-14 19:32N 47°34' W 052°42'0 0.0
2016-May-14 18:29N 47°34' W 052°42'0 0.0
2016-May-14 17:33N 47°34' W 052°42'0 0.0
2016-May-14 16:29N 47°34' W 052°42'0 0.0
2016-May-14 15:29N 47°34' W 052°42'0 0.0
2016-May-14 14:32N 47°34' W 052°42'0 0.0
2016-May-14 13:29N 47°34' W 052°42'0 0.0
2016-May-14 12:33N 47°34' W 052°42'6 6.3
2016-May-14 11:32N 47°33' W 052°33'  
Track history (hours):
 
Tides and Currents Weather Stations Pressure Air Temp Water Temp Dewpoint Dewpoint Depression Visibility Wind Speed Wind Dir Waves Ship Positions

Maersk Dispatcher

Last reported at 2016-May-22 04:27 UTC. Time now 2016-May-25 07:21 UTC.
Position N 47°28' W 052°05'.

Length 89 m; draft 6.8 m.

Type: Other ship. MMSI: 316013080.

Date/timePositionNaut miles runAvg speedWind from/ knotsBaromVisibWave heightAir tempDewpointWater temp
2016-May-22 04:27N 47°28' W 052°05'1414.6
2016-May-22 03:31N 47°32' W 052°24'1212.5
2016-May-22 02:33N 47°34' W 052°42'0 0.1
2016-May-22 01:30N 47°34' W 052°42'0 0.0
2016-May-22 00:27N 47°34' W 052°42'0 0.0
2016-May-21 23:30N 47°34' W 052°42'0 0.0
2016-May-21 22:03N 47°34' W 052°42'0 0.0
2016-May-21 21:30N 47°34' W 052°42'0 0.3
2016-May-21 20:30N 47°34' W 052°42'0 0.0
2016-May-21 19:27N 47°34' W 052°42'0 0.0
2016-May-21 18:33N 47°34' W 052°42'0 0.1
2016-May-21 17:33N 47°34' W 052°42'0 0.4
2016-May-21 16:31N 47°34' W 052°42'0 0.0
2016-May-21 15:31N 47°34' W 052°42'0 0.0
2016-May-21 14:31N 47°34' W 052°42'0 0.0
2016-May-21 13:25N 47°34' W 052°42'0 0.0
2016-May-21 12:31N 47°34' W 052°42'0 0.0
2016-May-21 11:29N 47°34' W 052°42'1 0.8
2016-May-21 10:30N 47°34' W 052°41'1312.8
2016-May-21 09:29N 47°30' W 052°23'  
2016-May-14 22:32N 47°32' W 052°10'1211.9
2016-May-14 21:31N 47°33' W 052°27'10 9.8
2016-May-14 20:30N 47°34' W 052°42'0 0.0
2016-May-14 19:32N 47°34' W 052°42'0 0.0
2016-May-14 18:29N 47°34' W 052°42'0 0.0
2016-May-14 17:33N 47°34' W 052°42'0 0.0
2016-May-14 16:29N 47°34' W 052°42'0 0.0
2016-May-14 15:29N 47°34' W 052°42'0 0.0
2016-May-14 14:32N 47°34' W 052°42'0 0.0
2016-May-14 13:29N 47°34' W 052°42'0 0.0
2016-May-14 12:33N 47°34' W 052°42'6 6.3
2016-May-14 11:32N 47°33' W 052°33'  

Dump ship's entire track history